Superior, Montana
Current Conditions -  °F | °C
As of 12:02 AM on Sunday 26 Oct 2014 (Local Time) from KMLP Reporting Station
Light Rain Light Rain  
Wind Chill: 33°   Ceiling: 2400
Heat Index: 39°   Visibility: 10mi
Dew Point: 37°   Wind: 9mph
Humidity: 93%   Direction: 210°SSW
Pressure: 29.7"   Gusts: 25mph
Location:  47.19°N, 114.89°W
Report Text: KMLP 260602Z AUTO 21008G22KT 10SM -RA SCT017 BKN024 OVC050 04/03 A2970 RMK AO2 P0000 T00390028
Loading
Personal Weather Stations






























Interactive Weather Map
Tropical Storm Tracking
New forecast layout! Learn more

10-Day Weather Forecast

Advertisements
Track Severe Weather on mobile